Time,TemperatureF,DewpointF,PressureIn,WindDirection,WindDirectionDegrees,WindSpeedMPH,WindSpeedGustMPH,Humidity,HourlyPrecipIn,Conditions,Clouds,dailyrainin,SoftwareType,DateUTC
2013-04-10 00:01:00,35.7,34.1,30.00,NE,46,3.0,9.0,94,0.00,,,0.00,Wunderground v.1.15,2013-04-10 05:01:00,
2013-04-10 00:06:00,35.7,34.1,30.00,ENE,68,6.0,9.0,94,0.00,,,0.00,Wunderground v.1.15,2013-04-10 05:06:00,
2013-04-10 00:12:00,35.6,34.0,30.00,East,90,6.0,6.0,94,0.00,,,0.00,Wunderground v.1.15,2013-04-10 05:12:00,
2013-04-10 00:18:00,35.5,33.9,29.99,ENE,71,15.0,15.0,94,0.00,,,0.00,Wunderground v.1.15,2013-04-10 05:18:00,
2013-04-10 00:24:00,35.4,33.8,29.99,East,89,11.0,15.0,94,0.00,,,0.00,Wunderground v.1.15,2013-04-10 05:24:00,
2013-04-10 00:29:00,35.3,34.0,29.99,ENE,63,3.0,15.0,94,0.00,,,0.00,weatherlink.com 1.10,2013-04-10 05:29:00,
2013-04-10 00:35:00,35.1,33.5,29.99,ENE,67,8.0,9.0,94,0.00,,,0.01,Wunderground v.1.15,2013-04-10 05:35:00,
2013-04-10 00:40:00,35.1,33.5,29.99,ENE,64,7.0,7.0,94,0.00,,,0.01,Wunderground v.1.15,2013-04-10 05:40:00,
2013-04-10 00:46:00,35.1,33.5,30.00,NE,51,5.0,7.0,94,0.00,,,0.01,Wunderground v.1.15,2013-04-10 05:46:00,
2013-04-10 00:51:00,35.0,33.4,30.00,ENE,78,1.0,10.0,94,0.04,,,0.02,Wunderground v.1.15,2013-04-10 05:51:00,
2013-04-10 00:57:00,35.0,33.7,30.00,NE,49,6.0,10.0,95,0.04,,,0.02,Wunderground v.1.15,2013-04-10 05:57:00,
2013-04-10 01:03:00,34.9,33.3,30.00,SW,228,1.0,11.0,94,0.04,,,0.02,Wunderground v.1.15,2013-04-10 06:03:00,
2013-04-10 01:09:00,34.8,33.2,30.01,ENE,67,9.0,9.0,94,0.00,,,0.02,Wunderground v.1.15,2013-04-10 06:09:00,
2013-04-10 01:14:00,34.7,33.2,30.01,NE,40,6.0,9.0,94,0.00,,,0.03,Wunderground v.1.15,2013-04-10 06:14:00,
2013-04-10 01:19:00,34.6,33.1,30.00,WNW,290,5.0,6.0,94,0.10,,,0.04,Wunderground v.1.15,2013-04-10 06:19:00,
2013-04-10 01:25:00,34.4,32.9,30.00,East,99,4.0,6.0,94,0.08,,,0.04,Wunderground v.1.15,2013-04-10 06:25:00,
2013-04-10 01:32:00,34.1,32.6,29.98,East,85,6.0,7.0,94,0.04,,,0.04,Wunderground v.1.15,2013-04-10 06:32:00,
2013-04-10 01:38:00,34.0,32.5,29.98,South,176,5.0,5.0,94,0.00,,,0.04,Wunderground v.1.15,2013-04-10 06:38:00,
2013-04-10 01:43:00,33.9,32.4,30.00,WNW,301,3.0,5.0,94,0.00,,,0.04,Wunderground v.1.15,2013-04-10 06:43:00,
2013-04-10 01:49:00,33.8,32.3,30.02,North,358,3.0,5.0,94,0.00,,,0.05,Wunderground v.1.15,2013-04-10 06:49:00,
2013-04-10 01:55:00,33.6,32.1,30.01,NNW,345,6.0,6.0,94,0.07,,,0.06,Wunderground v.1.15,2013-04-10 06:55:00,
2013-04-10 02:00:00,33.5,32.0,30.01,NNW,333,9.0,16.0,94,0.10,,,0.07,Wunderground v.1.15,2013-04-10 07:00:00,
2013-04-10 02:05:00,33.3,31.8,30.01,NNW,339,3.0,16.0,94,0.09,,,0.07,Wunderground v.1.15,2013-04-10 07:05:00,
2013-04-10 02:10:00,33.3,31.8,30.01,North,350,3.0,9.0,94,0.05,,,0.07,Wunderground v.1.15,2013-04-10 07:10:00,
2013-04-10 02:15:00,33.2,31.7,30.02,NNW,335,3.0,12.0,94,0.00,,,0.07,Wunderground v.1.15,2013-04-10 07:15:00,
2013-04-10 02:20:00,33.0,31.5,30.00,NNW,331,2.0,9.0,94,0.97,,,0.16,Wunderground v.1.15,2013-04-10 07:20:00,
2013-04-10 02:25:00,32.8,31.3,30.00,NNW,343,7.0,10.0,94,0.52,,,0.21,Wunderground v.1.15,2013-04-10 07:25:00,
2013-04-10 02:30:00,32.7,31.2,29.98,WNW,285,2.0,12.0,94,0.16,,,0.23,Wunderground v.1.15,2013-04-10 07:30:00,
2013-04-10 02:35:00,32.6,31.1,29.98,WNW,282,1.0,13.0,94,0.08,,,0.24,Wunderground v.1.15,2013-04-10 07:35:00,
2013-04-10 02:40:00,32.5,31.0,29.96,NE,53,6.0,9.0,94,0.08,,,0.24,Wunderground v.1.15,2013-04-10 07:40:00,
2013-04-10 02:45:00,32.5,31.0,29.96,ENE,73,3.0,10.0,94,0.05,,,0.24,Wunderground v.1.15,2013-04-10 07:45:00,
2013-04-10 02:50:00,32.5,31.0,29.95,NW,321,2.0,7.0,94,0.05,,,0.25,Wunderground v.1.15,2013-04-10 07:50:00,
2013-04-10 02:55:00,32.5,31.0,29.96,ESE,102,7.0,14.0,94,0.05,,,0.25,Wunderground v.1.15,2013-04-10 07:55:00,
2013-04-10 03:00:00,32.5,31.0,29.97,NW,323,2.0,10.0,94,0.05,,,0.25,Wunderground v.1.15,2013-04-10 08:00:00,
2013-04-10 03:05:00,32.6,31.1,29.99,NW,323,1.0,10.0,94,0.00,,,0.25,Wunderground v.1.15,2013-04-10 08:05:00,
2013-04-10 03:10:00,32.7,31.2,29.99,NE,36,6.0,13.0,94,0.00,,,0.25,Wunderground v.1.15,2013-04-10 08:10:00,
2013-04-10 03:15:00,32.7,31.2,29.99,East,99,8.0,18.0,94,0.00,,,0.25,Wunderground v.1.15,2013-04-10 08:15:00,
2013-04-10 03:20:00,32.8,31.3,30.00,NNW,345,3.0,6.0,94,0.00,,,0.25,Wunderground v.1.15,2013-04-10 08:20:00,
2013-04-10 03:25:00,32.8,31.3,30.00,ENE,74,2.0,10.0,94,0.00,,,0.25,Wunderground v.1.15,2013-04-10 08:25:00,
2013-04-10 03:30:00,32.9,31.4,29.99,NW,318,2.0,6.0,94,0.00,,,0.25,Wunderground v.1.15,2013-04-10 08:30:00,
2013-04-10 03:35:00,32.9,31.4,29.99,North,352,3.0,12.0,94,0.00,,,0.25,Wunderground v.1.15,2013-04-10 08:35:00,
2013-04-10 03:40:00,32.9,31.4,29.97,NE,51,5.0,13.0,94,0.46,,,0.27,Wunderground v.1.15,2013-04-10 08:40:00,
2013-04-10 03:45:00,32.9,31.4,29.97,North,352,9.0,14.0,94,0.29,,,0.29,Wunderground v.1.15,2013-04-10 08:45:00,
2013-04-10 03:50:00,32.9,31.4,29.98,North,5,5.0,11.0,94,0.49,,,0.33,Wunderground v.1.15,2013-04-10 08:50:00,
2013-04-10 03:55:00,33.0,31.5,29.97,SE,124,4.0,13.0,94,0.23,,,0.35,Wunderground v.1.15,2013-04-10 08:55:00,
2013-04-10 04:00:00,33.1,31.6,29.97,North,1,7.0,9.0,94,0.19,,,0.36,Wunderground v.1.15,2013-04-10 09:00:00,
2013-04-10 04:05:00,33.1,31.6,29.97,ESE,121,3.0,13.0,94,0.07,,,0.36,Wunderground v.1.15,2013-04-10 09:05:00,
2013-04-10 04:10:00,33.1,31.6,29.96,ENE,64,5.0,8.0,94,0.05,,,0.36,Wunderground v.1.15,2013-04-10 09:10:00,
2013-04-10 04:15:00,33.1,31.6,29.95,NE,55,3.0,12.0,94,0.00,,,0.36,Wunderground v.1.15,2013-04-10 09:15:00,
2013-04-10 04:20:00,33.2,31.7,29.96,WSW,245,4.0,11.0,94,0.00,,,0.36,Wunderground v.1.15,2013-04-10 09:20:00,
2013-04-10 04:25:00,33.2,31.7,29.95,NNW,339,3.0,11.0,94,0.00,,,0.36,Wunderground v.1.15,2013-04-10 09:25:00,
2013-04-10 04:30:00,33.3,32.0,29.95,West,280,3.0,11.0,95,0.00,,,0.36,Wunderground v.1.15,2013-04-10 09:30:00,
2013-04-10 04:35:00,33.3,32.0,29.96,East,100,5.0,11.0,95,0.00,,,0.36,Wunderground v.1.15,2013-04-10 09:35:00,
2013-04-10 04:40:00,33.4,32.1,29.95,East,85,7.0,14.0,95,0.00,,,0.36,Wunderground v.1.15,2013-04-10 09:40:00,
2013-04-10 04:45:00,33.5,32.2,29.95,ENE,63,13.0,14.0,95,0.00,,,0.36,Wunderground v.1.15,2013-04-10 09:45:00,
2013-04-10 04:50:00,33.6,32.3,29.95,SE,129,3.0,11.0,95,0.00,,,0.36,Wunderground v.1.15,2013-04-10 09:50:00,
2013-04-10 04:55:00,33.7,32.4,29.98,West,276,6.0,13.0,95,0.00,,,0.36,Wunderground v.1.15,2013-04-10 09:55:00,
2013-04-10 05:00:00,33.9,32.6,30.04,NW,309,1.0,6.0,95,0.00,,,0.36,Wunderground v.1.15,2013-04-10 10:00:00,
2013-04-10 05:05:00,33.9,32.4,29.98,NNW,339,2.0,13.0,94,0.00,,,0.36,Wunderground v.1.15,2013-04-10 10:05:00,
2013-04-10 05:10:00,33.9,32.4,30.03,West,276,0.0,6.0,94,0.00,,,0.36,Wunderground v.1.15,2013-04-10 10:10:00,
2013-04-10 05:15:00,33.9,32.4,30.00,NNE,16,5.0,8.0,94,0.00,,,0.37,Wunderground v.1.15,2013-04-10 10:15:00,
2013-04-10 05:20:00,33.8,32.3,30.04,West,270,3.0,6.0,94,0.33,,,0.39,Wunderground v.1.15,2013-04-10 10:20:00,
2013-04-10 05:25:00,33.8,32.3,30.03,North,359,1.0,7.0,94,0.17,,,0.40,Wunderground v.1.15,2013-04-10 10:25:00,
2013-04-10 05:30:00,33.7,32.2,30.06,West,276,5.0,8.0,94,0.08,,,0.41,Wunderground v.1.15,2013-04-10 10:30:00,
2013-04-10 05:35:00,33.9,32.6,30.16,West,259,10.0,17.0,95,0.08,,,0.41,Wunderground v.1.15,2013-04-10 10:35:00,
2013-04-10 05:40:00,33.8,32.3,30.11,East,95,5.0,8.0,94,0.58,,,0.46,Wunderground v.1.15,2013-04-10 10:40:00,
2013-04-10 05:45:00,33.6,32.1,30.02,North,354,2.0,8.0,94,0.36,,,0.49,Wunderground v.1.15,2013-04-10 10:45:00,
2013-04-10 05:50:00,33.5,32.0,29.99,East,97,6.0,11.0,94,0.28,,,0.52,Wunderground v.1.15,2013-04-10 10:50:00,
2013-04-10 05:55:00,33.3,31.8,29.97,ENE,74,4.0,11.0,94,0.24,,,0.54,Wunderground v.1.15,2013-04-10 10:55:00,
2013-04-10 06:00:00,33.3,31.8,29.97,North,8,2.0,17.0,94,0.19,,,0.56,Wunderground v.1.15,2013-04-10 11:00:00,
2013-04-10 06:05:00,33.3,31.8,29.97,East,85,12.0,17.0,94,0.26,,,0.58,Wunderground v.1.15,2013-04-10 11:05:00,
2013-04-10 06:10:00,33.3,31.8,29.95,ENE,64,15.0,16.0,94,0.31,,,0.60,Wunderground v.1.15,2013-04-10 11:10:00,
2013-04-10 06:15:00,33.4,31.9,29.93,ENE,77,17.0,21.0,94,0.18,,,0.62,Wunderground v.1.15,2013-04-10 11:15:00,
2013-04-10 06:20:00,33.4,31.9,29.92,East,81,7.0,21.0,94,0.20,,,0.64,Wunderground v.1.15,2013-04-10 11:20:00,
2013-04-10 06:25:00,33.5,32.0,29.93,ENE,65,13.0,21.0,94,0.22,,,0.66,Wunderground v.1.15,2013-04-10 11:25:00,
2013-04-10 06:30:00,33.6,32.1,29.96,NE,56,4.0,16.0,94,0.17,,,0.67,Wunderground v.1.15,2013-04-10 11:30:00,
2013-04-10 06:35:00,33.7,32.2,29.97,NE,53,3.0,16.0,94,0.08,,,0.67,Wunderground v.1.15,2013-04-10 11:35:00,
2013-04-10 06:40:00,33.7,32.2,29.98,WSW,257,4.0,12.0,94,0.05,,,0.68,Wunderground v.1.15,2013-04-10 11:40:00,
2013-04-10 06:45:00,33.7,32.2,29.98,SSW,193,1.0,17.0,94,0.05,,,0.68,Wunderground v.1.15,2013-04-10 11:45:00,
2013-04-10 06:50:00,33.7,32.2,29.98,East,98,1.0,10.0,94,0.07,,,0.69,Wunderground v.1.15,2013-04-10 11:50:00,
2013-04-10 06:55:00,33.8,32.3,29.98,North,5,3.0,11.0,94,0.12,,,0.70,Wunderground v.1.15,2013-04-10 11:55:00,
2013-04-10 07:00:00,33.8,32.3,29.99,East,86,4.0,10.0,94,0.16,,,0.71,Wunderground v.1.15,2013-04-10 12:00:00,
2013-04-10 07:05:00,33.8,32.3,29.98,North,352,3.0,10.0,94,0.18,,,0.73,Wunderground v.1.15,2013-04-10 12:05:00,
2013-04-10 07:10:00,33.8,32.3,29.97,ENE,61,2.0,9.0,94,0.17,,,0.74,Wunderground v.1.15,2013-04-10 12:10:00,
2013-04-10 07:15:00,33.8,32.3,29.94,NNE,20,8.0,15.0,94,0.11,,,0.75,Wunderground v.1.15,2013-04-10 12:15:00,
2013-04-10 07:20:00,33.9,32.4,29.95,ENE,57,8.0,13.0,94,0.12,,,0.76,Wunderground v.1.15,2013-04-10 12:20:00,
2013-04-10 07:25:00,33.9,32.4,29.94,NNE,30,7.0,16.0,94,0.08,,,0.76,Wunderground v.1.15,2013-04-10 12:25:00,
2013-04-10 07:30:00,33.9,32.6,29.94,NE,39,8.0,10.0,95,0.06,,,0.77,Wunderground v.1.15,2013-04-10 12:30:00,
2013-04-10 07:35:00,34.0,32.7,29.94,East,94,10.0,16.0,95,0.06,,,0.77,Wunderground v.1.15,2013-04-10 12:35:00,
2013-04-10 07:40:00,34.1,32.8,29.96,ENE,75,9.0,10.0,95,0.05,,,0.78,Wunderground v.1.15,2013-04-10 12:40:00,
2013-04-10 07:45:00,34.2,32.9,29.99,ENE,78,5.0,10.0,95,0.05,,,0.78,Wunderground v.1.15,2013-04-10 12:45:00,
2013-04-10 07:51:00,34.4,33.1,30.01,ENE,66,2.0,7.0,95,0.08,,,0.79,Wunderground v.1.15,2013-04-10 12:51:00,
2013-04-10 07:56:00,34.4,33.1,30.04,East,84,9.0,9.0,95,0.10,,,0.80,Wunderground v.1.15,2013-04-10 12:56:00,
2013-04-10 08:01:00,34.6,33.3,30.05,SSE,159,1.0,3.0,95,0.26,,,0.82,Wunderground v.1.15,2013-04-10 13:01:00,
2013-04-10 08:06:00,34.7,33.4,30.05,SE,134,1.0,4.0,95,0.30,,,0.85,Wunderground v.1.15,2013-04-10 13:06:00,
2013-04-10 08:11:00,34.8,33.5,30.04,NW,321,0.0,2.0,95,0.39,,,0.88,Wunderground v.1.15,2013-04-10 13:11:00,
2013-04-10 08:16:00,34.9,33.6,30.04,NNW,340,1.0,4.0,95,0.27,,,0.90,Wunderground v.1.15,2013-04-10 13:16:00,
2013-04-10 08:21:00,34.9,33.6,30.02,NNE,27,2.0,4.0,95,0.25,,,0.92,Wunderground v.1.15,2013-04-10 13:21:00,
2013-04-10 08:26:00,35.0,33.7,29.98,NNW,335,6.0,8.0,95,0.16,,,0.94,Wunderground v.1.15,2013-04-10 13:26:00,
2013-04-10 08:31:00,35.0,33.7,29.93,ENE,69,6.0,9.0,95,0.20,,,0.95,Wunderground v.1.15,2013-04-10 13:31:00,
2013-04-10 08:36:00,35.1,33.8,29.90,East,93,5.0,10.0,95,0.14,,,0.96,Wunderground v.1.15,2013-04-10 13:36:00,
2013-04-10 08:41:00,35.1,33.8,29.87,NNW,348,6.0,19.0,95,0.08,,,0.97,Wunderground v.1.15,2013-04-10 13:41:00,
2013-04-10 08:46:00,35.1,33.8,29.86,East,91,8.0,20.0,95,0.08,,,0.97,Wunderground v.1.15,2013-04-10 13:46:00,
2013-04-10 08:51:00,35.2,33.9,29.87,East,79,10.0,14.0,95,0.05,,,0.97,Wunderground v.1.15,2013-04-10 13:51:00,
2013-04-10 08:56:00,35.2,33.9,29.86,NE,48,11.0,24.0,95,0.04,,,0.97,Wunderground v.1.15,2013-04-10 13:56:00,
2013-04-10 09:01:00,35.3,34.0,29.85,East,99,15.0,20.0,95,0.00,,,0.97,Wunderground v.1.15,2013-04-10 14:01:00,
2013-04-10 09:07:00,35.5,34.2,29.87,ENE,78,10.0,21.0,95,0.00,,,0.97,Wunderground v.1.15,2013-04-10 14:07:00,
2013-04-10 09:12:00,35.6,34.3,29.90,SE,130,8.0,12.0,95,0.00,,,0.97,Wunderground v.1.15,2013-04-10 14:12:00,
2013-04-10 09:17:00,35.8,34.5,29.91,NE,36,7.0,13.0,95,0.00,,,0.97,Wunderground v.1.15,2013-04-10 14:17:00,
2013-04-10 09:22:00,36.0,34.7,29.93,ESE,102,4.0,6.0,95,0.00,,,0.97,Wunderground v.1.15,2013-04-10 14:22:00,
2013-04-10 09:27:00,36.1,34.8,29.95,NNW,338,3.0,8.0,95,0.00,,,0.97,Wunderground v.1.15,2013-04-10 14:27:00,
2013-04-10 09:32:00,36.2,34.9,29.97,West,268,2.0,8.0,95,0.00,,,0.97,Wunderground v.1.15,2013-04-10 14:32:00,
2013-04-10 09:37:00,36.3,34.7,29.96,NE,41,9.0,11.0,94,0.00,,,0.97,Wunderground v.1.15,2013-04-10 14:37:00,
2013-04-10 09:42:00,36.5,34.9,29.96,NNE,27,9.0,9.0,94,0.00,,,0.97,Wunderground v.1.15,2013-04-10 14:42:00,
2013-04-10 09:47:00,36.6,35.0,29.97,WNW,285,1.0,9.0,94,0.00,,,0.97,Wunderground v.1.15,2013-04-10 14:47:00,
2013-04-10 09:52:00,36.7,35.1,29.98,East,101,4.0,8.0,94,0.00,,,0.97,Wunderground v.1.15,2013-04-10 14:52:00,
2013-04-10 09:57:00,36.7,35.1,29.98,NNW,327,1.0,13.0,94,0.00,,,0.97,Wunderground v.1.15,2013-04-10 14:57:00,
2013-04-10 10:02:00,36.8,35.2,29.97,SE,125,5.0,15.0,94,0.00,,,0.97,Wunderground v.1.15,2013-04-10 15:02:00,
2013-04-10 10:07:00,36.9,35.3,29.99,NNE,16,1.0,15.0,94,0.00,,,0.97,Wunderground v.1.15,2013-04-10 15:07:00,
2013-04-10 10:12:00,37.1,35.5,30.00,East,85,4.0,9.0,94,0.00,,,0.97,Wunderground v.1.15,2013-04-10 15:12:00,
2013-04-10 10:17:00,37.1,35.5,30.02,NW,307,2.0,9.0,94,0.00,,,0.97,Wunderground v.1.15,2013-04-10 15:17:00,
2013-04-10 10:22:00,37.1,35.5,30.02,ENE,78,6.0,8.0,94,0.00,,,0.97,Wunderground v.1.15,2013-04-10 15:22:00,
2013-04-10 10:27:00,37.0,35.4,30.02,NNW,338,2.0,9.0,94,0.00,,,0.97,Wunderground v.1.15,2013-04-10 15:27:00,
2013-04-10 10:32:00,36.9,35.3,30.02,NE,54,1.0,9.0,94,0.00,,,0.97,Wunderground v.1.15,2013-04-10 15:32:00,
2013-04-10 10:37:00,37.0,35.4,30.02,East,96,3.0,9.0,94,0.00,,,0.97,Wunderground v.1.15,2013-04-10 15:37:00,
2013-04-10 10:42:00,37.0,35.4,30.01,SW,222,1.0,6.0,94,0.00,,,0.97,Wunderground v.1.15,2013-04-10 15:42:00,
2013-04-10 10:47:00,37.2,35.6,30.00,East,83,3.0,8.0,94,0.00,,,0.97,Wunderground v.1.15,2013-04-10 15:47:00,
2013-04-10 10:52:00,37.2,35.6,30.01,East,79,4.0,8.0,94,0.00,,,0.97,Wunderground v.1.15,2013-04-10 15:52:00,
2013-04-10 10:57:00,37.2,35.6,30.02,NW,324,5.0,10.0,94,0.00,,,0.97,Wunderground v.1.15,2013-04-10 15:57:00,
2013-04-10 11:02:00,37.3,35.7,30.02,ENE,71,0.0,7.0,94,0.00,,,0.97,Wunderground v.1.15,2013-04-10 16:02:00,
2013-04-10 11:07:00,37.3,35.5,30.04,ESE,121,4.0,8.0,93,0.00,,,0.97,Wunderground v.1.15,2013-04-10 16:07:00,
2013-04-10 11:13:00,37.3,35.5,30.06,NNW,331,2.0,6.0,93,0.00,,,0.97,Wunderground v.1.15,2013-04-10 16:13:00,
2013-04-10 11:18:00,37.3,35.5,30.07,East,99,1.0,8.0,93,0.00,,,0.97,Wunderground v.1.15,2013-04-10 16:18:00,
2013-04-10 11:23:00,37.3,35.5,30.07,NNW,341,2.0,5.0,93,0.00,,,0.97,Wunderground v.1.15,2013-04-10 16:23:00,
2013-04-10 11:28:00,37.3,35.5,30.06,West,273,1.0,7.0,93,0.00,,,0.97,Wunderground v.1.15,2013-04-10 16:28:00,
2013-04-10 11:33:00,37.3,35.5,30.05,WNW,287,2.0,9.0,93,0.00,,,0.97,Wunderground v.1.15,2013-04-10 16:33:00,
2013-04-10 11:38:00,37.2,35.4,30.05,ENE,63,2.0,9.0,93,0.00,,,0.97,Wunderground v.1.15,2013-04-10 16:38:00,
2013-04-10 11:43:00,37.3,35.5,30.05,ESE,108,2.0,4.0,93,0.00,,,0.97,Wunderground v.1.15,2013-04-10 16:43:00,
2013-04-10 11:48:00,37.2,35.4,30.03,North,359,1.0,2.0,93,0.00,,,0.97,Wunderground v.1.15,2013-04-10 16:48:00,
2013-04-10 11:53:00,37.1,35.3,30.02,North,352,7.0,10.0,93,0.00,,,0.97,Wunderground v.1.15,2013-04-10 16:53:00,
2013-04-10 11:58:00,36.9,35.1,30.02,North,359,5.0,5.0,93,0.00,,,0.97,Wunderground v.1.15,2013-04-10 16:58:00,
2013-04-10 12:03:00,37.0,35.2,30.00,NE,44,5.0,8.0,93,0.00,,,0.97,Wunderground v.1.15,2013-04-10 17:03:00,
2013-04-10 12:08:00,37.0,35.2,29.99,East,80,6.0,8.0,93,0.00,,,0.97,Wunderground v.1.15,2013-04-10 17:08:00,
2013-04-10 12:13:00,36.9,35.1,29.98,East,81,7.0,11.0,93,0.00,,,0.97,Wunderground v.1.15,2013-04-10 17:13:00,
2013-04-10 12:18:00,36.9,35.1,29.97,ESE,121,4.0,5.0,93,0.00,,,0.97,Wunderground v.1.15,2013-04-10 17:18:00,
2013-04-10 12:23:00,36.8,35.0,29.96,NNW,335,6.0,12.0,93,0.00,,,0.97,Wunderground v.1.15,2013-04-10 17:23:00,
2013-04-10 12:28:00,36.8,35.2,29.96,NW,319,4.0,5.0,94,0.00,,,0.97,Wunderground v.1.15,2013-04-10 17:28:00,
2013-04-10 12:33:00,36.8,35.2,29.95,NE,49,10.0,12.0,94,0.00,,,0.97,Wunderground v.1.15,2013-04-10 17:33:00,
2013-04-10 12:38:00,36.8,35.0,29.94,East,82,8.0,8.0,93,0.00,,,0.97,Wunderground v.1.15,2013-04-10 17:38:00,
2013-04-10 12:43:00,36.9,35.3,29.96,NNE,14,3.0,10.0,94,0.00,,,0.97,Wunderground v.1.15,2013-04-10 17:43:00,
2013-04-10 12:48:00,37.1,35.5,29.97,NE,53,4.0,8.0,94,0.00,,,0.97,Wunderground v.1.15,2013-04-10 17:48:00,
2013-04-10 12:53:00,37.2,35.4,29.98,East,83,3.0,9.0,93,0.00,,,0.97,Wunderground v.1.15,2013-04-10 17:53:00,
2013-04-10 12:58:00,37.3,35.5,29.99,North,351,2.0,5.0,93,0.00,,,0.97,Wunderground v.1.15,2013-04-10 17:58:00,
2013-04-10 13:03:00,37.3,35.5,29.97,North,4,5.0,16.0,93,0.00,,,0.97,Wunderground v.1.15,2013-04-10 18:03:00,
2013-04-10 13:08:00,37.2,35.4,29.96,NE,40,5.0,11.0,93,0.00,,,0.97,Wunderground v.1.15,2013-04-10 18:08:00,
2013-04-10 13:13:00,37.2,35.4,29.96,NE,55,6.0,15.0,93,0.00,,,0.97,Wunderground v.1.15,2013-04-10 18:13:00,
2013-04-10 13:18:00,37.2,35.4,29.98,ESE,108,3.0,6.0,93,0.00,,,0.97,Wunderground v.1.15,2013-04-10 18:18:00,
2013-04-10 13:23:00,37.2,35.4,29.99,East,96,4.0,15.0,93,0.00,,,0.97,Wunderground v.1.15,2013-04-10 18:23:00,
2013-04-10 13:28:00,37.3,35.5,29.99,East,91,2.0,4.0,93,0.00,,,0.97,Wunderground v.1.15,2013-04-10 18:28:00,
2013-04-10 13:33:00,37.3,35.5,29.99,NE,52,4.0,9.0,93,0.00,,,0.97,Wunderground v.1.15,2013-04-10 18:33:00,
2013-04-10 13:38:00,37.4,35.6,30.01,ENE,64,2.0,4.0,93,0.00,,,0.97,Wunderground v.1.15,2013-04-10 18:38:00,
2013-04-10 13:43:00,37.5,35.7,30.01,ENE,66,3.0,6.0,93,0.00,,,0.97,Wunderground v.1.15,2013-04-10 18:43:00,
2013-04-10 13:48:00,37.4,35.6,30.02,ESE,108,2.0,4.0,93,0.00,,,0.97,Wunderground v.1.15,2013-04-10 18:48:00,
2013-04-10 13:53:00,37.4,35.6,30.02,SE,144,2.0,9.0,93,0.00,,,0.97,Wunderground v.1.15,2013-04-10 18:53:00,
2013-04-10 13:58:00,37.3,35.2,30.01,NNE,30,2.0,6.0,92,0.00,,,0.97,Wunderground v.1.15,2013-04-10 18:58:00,
2013-04-10 14:03:00,37.2,35.1,29.99,NNE,29,4.0,13.0,92,0.00,,,0.97,Wunderground v.1.15,2013-04-10 19:03:00,
2013-04-10 14:08:00,37.1,35.0,29.98,ENE,75,5.0,6.0,92,0.00,,,0.97,Wunderground v.1.15,2013-04-10 19:08:00,
2013-04-10 14:13:00,36.9,34.8,29.98,North,10,6.0,12.0,92,0.00,,,0.97,Wunderground v.1.15,2013-04-10 19:13:00,
2013-04-10 14:18:00,37.0,35.2,29.99,NE,34,8.0,8.0,93,0.00,,,0.97,Wunderground v.1.15,2013-04-10 19:18:00,
2013-04-10 14:23:00,37.0,35.2,30.00,East,79,1.0,10.0,93,0.00,,,0.97,Wunderground v.1.15,2013-04-10 19:23:00,
2013-04-10 14:28:00,37.0,35.2,30.02,ENE,60,2.0,4.0,93,0.00,,,0.97,Wunderground v.1.15,2013-04-10 19:28:00,
2013-04-10 14:33:00,36.9,35.1,30.03,NNW,343,2.0,7.0,93,0.00,,,0.97,Wunderground v.1.15,2013-04-10 19:33:00,
2013-04-10 14:38:00,37.0,35.2,30.04,ENE,65,3.0,5.0,93,0.00,,,0.98,Wunderground v.1.15,2013-04-10 19:38:00,
2013-04-10 14:43:00,36.9,35.1,30.04,East,86,2.0,5.0,93,0.00,,,0.98,Wunderground v.1.15,2013-04-10 19:43:00,
2013-04-10 14:48:00,36.9,35.1,30.05,NW,325,4.0,5.0,93,0.06,,,0.99,Wunderground v.1.15,2013-04-10 19:48:00,
2013-04-10 14:53:00,36.8,35.0,30.04,NE,53,2.0,10.0,93,0.10,,,1.00,Wunderground v.1.15,2013-04-10 19:53:00,
2013-04-10 14:58:00,36.8,35.0,30.05,NNW,343,0.0,3.0,93,0.19,,,1.02,Wunderground v.1.15,2013-04-10 19:58:00,
2013-04-10 15:03:00,36.8,35.0,30.05,West,269,1.0,9.0,93,0.18,,,1.03,Wunderground v.1.15,2013-04-10 20:03:00,
2013-04-10 15:08:00,36.7,34.9,30.05,East,87,4.0,5.0,93,0.15,,,1.04,Wunderground v.1.15,2013-04-10 20:08:00,
2013-04-10 15:13:00,36.7,34.9,30.05,NE,54,0.0,6.0,93,0.09,,,1.05,Wunderground v.1.15,2013-04-10 20:13:00,
2013-04-10 15:18:00,36.7,34.9,30.05,SE,131,3.0,5.0,93,0.09,,,1.05,Wunderground v.1.15,2013-04-10 20:18:00,
2013-04-10 15:23:00,36.6,34.8,30.04,WNW,295,2.0,9.0,93,0.05,,,1.05,Wunderground v.1.15,2013-04-10 20:23:00,
2013-04-10 15:28:00,36.7,34.9,30.04,WSW,255,0.0,3.0,93,0.05,,,1.06,Wunderground v.1.15,2013-04-10 20:28:00,
2013-04-10 15:33:00,36.6,34.8,30.04,NNW,332,1.0,6.0,93,0.05,,,1.06,Wunderground v.1.15,2013-04-10 20:33:00,
2013-04-10 15:38:00,36.6,34.8,30.03,SW,219,0.0,3.0,93,0.05,,,1.07,Wunderground v.1.15,2013-04-10 20:38:00,
2013-04-10 15:43:00,36.6,34.8,30.03,NNW,344,5.0,8.0,93,0.05,,,1.07,Wunderground v.1.15,2013-04-10 20:43:00,
2013-04-10 15:48:00,36.6,35.0,30.03,NNW,345,3.0,3.0,94,0.05,,,1.07,Wunderground v.1.15,2013-04-10 20:48:00,
2013-04-10 15:53:00,36.6,34.8,30.03,ENE,60,4.0,11.0,93,0.04,,,1.08,Wunderground v.1.15,2013-04-10 20:53:00,
2013-04-10 15:59:00,36.5,34.7,30.02,NW,325,10.0,10.0,93,0.04,,,1.08,Wunderground v.1.15,2013-04-10 20:59:00,
2013-04-10 16:04:00,36.5,34.7,30.01,NE,36,4.0,11.0,93,0.06,,,1.09,Wunderground v.1.15,2013-04-10 21:04:00,
2013-04-10 16:09:00,36.5,34.9,30.00,East,91,3.0,6.0,94,0.06,,,1.09,Wunderground v.1.15,2013-04-10 21:09:00,
2013-04-10 16:14:00,36.6,35.0,30.00,NNE,15,2.0,8.0,94,0.07,,,1.10,Wunderground v.1.15,2013-04-10 21:14:00,
2013-04-10 16:19:00,36.6,35.0,29.99,East,84,4.0,6.0,94,0.07,,,1.10,Wunderground v.1.15,2013-04-10 21:19:00,
2013-04-10 16:24:00,36.7,35.1,29.99,NNW,328,5.0,10.0,94,0.04,,,1.10,Wunderground v.1.15,2013-04-10 21:24:00,
2013-04-10 16:29:00,36.8,35.2,29.99,ENE,71,2.0,5.0,94,0.00,,,1.10,Wunderground v.1.15,2013-04-10 21:29:00,
2013-04-10 16:34:00,36.7,35.1,29.98,North,359,12.0,12.0,94,0.00,,,1.11,Wunderground v.1.15,2013-04-10 21:34:00,
2013-04-10 16:39:00,36.7,35.1,29.98,NNW,348,1.0,10.0,94,0.00,,,1.11,Wunderground v.1.15,2013-04-10 21:39:00,
2013-04-10 16:44:00,36.7,35.1,29.97,SE,125,1.0,10.0,94,0.00,,,1.11,Wunderground v.1.15,2013-04-10 21:44:00,
2013-04-10 16:49:00,36.7,35.1,29.96,West,277,3.0,6.0,94,0.00,,,1.11,Wunderground v.1.15,2013-04-10 21:49:00,
2013-04-10 16:54:00,36.7,35.1,29.94,ENE,72,7.0,11.0,94,0.00,,,1.11,Wunderground v.1.15,2013-04-10 21:54:00,
2013-04-10 16:59:00,36.6,35.0,29.95,ENE,77,5.0,10.0,94,0.00,,,1.11,Wunderground v.1.15,2013-04-10 21:59:00,
2013-04-10 17:04:00,36.5,34.9,29.94,ENE,71,6.0,14.0,94,0.00,,,1.11,Wunderground v.1.15,2013-04-10 22:04:00,
2013-04-10 17:09:00,36.6,35.0,29.94,WNW,293,2.0,5.0,94,0.00,,,1.11,Wunderground v.1.15,2013-04-10 22:09:00,
2013-04-10 17:14:00,36.6,35.0,29.94,NNE,13,7.0,9.0,94,0.00,,,1.11,Wunderground v.1.15,2013-04-10 22:14:00,
2013-04-10 17:19:00,36.6,35.0,29.94,ESE,115,10.0,10.0,94,0.00,,,1.11,Wunderground v.1.15,2013-04-10 22:19:00,
2013-04-10 17:24:00,36.6,35.0,29.94,ENE,65,3.0,11.0,94,0.00,,,1.11,Wunderground v.1.15,2013-04-10 22:24:00,
2013-04-10 17:29:00,36.6,35.0,29.94,ENE,72,3.0,8.0,94,0.00,,,1.11,Wunderground v.1.15,2013-04-10 22:29:00,
2013-04-10 17:34:00,36.7,35.1,29.94,ENE,72,5.0,10.0,94,0.00,,,1.11,Wunderground v.1.15,2013-04-10 22:34:00,
2013-04-10 17:39:00,36.8,35.2,29.94,East,89,6.0,6.0,94,0.00,,,1.11,Wunderground v.1.15,2013-04-10 22:39:00,
2013-04-10 17:44:00,36.7,35.1,29.95,NE,37,8.0,13.0,94,0.00,,,1.11,Wunderground v.1.15,2013-04-10 22:44:00,
2013-04-10 17:49:00,36.7,35.1,29.96,ENE,60,8.0,8.0,94,0.00,,,1.11,Wunderground v.1.15,2013-04-10 22:49:00,
2013-04-10 17:54:00,36.6,35.0,29.97,NNE,25,4.0,16.0,94,0.00,,,1.11,Wunderground v.1.15,2013-04-10 22:54:00,
2013-04-10 17:59:00,36.6,35.0,29.97,ENE,75,5.0,10.0,94,0.00,,,1.11,Wunderground v.1.15,2013-04-10 22:59:00,
2013-04-10 18:04:00,36.4,34.6,29.96,ENE,68,7.0,14.0,93,0.00,,,1.11,Wunderground v.1.15,2013-04-10 23:04:00,
2013-04-10 18:09:00,36.3,34.5,29.97,NE,41,4.0,18.0,93,0.00,,,1.11,Wunderground v.1.15,2013-04-10 23:09:00,
2013-04-10 18:14:00,36.3,34.5,29.97,NNE,32,10.0,19.0,93,0.00,,,1.11,Wunderground v.1.15,2013-04-10 23:14:00,
2013-04-10 18:19:00,36.2,34.4,29.97,NE,46,3.0,8.0,93,0.00,,,1.11,Wunderground v.1.15,2013-04-10 23:19:00,
2013-04-10 18:24:00,36.1,34.3,29.97,ENE,64,1.0,12.0,93,0.00,,,1.11,Wunderground v.1.15,2013-04-10 23:24:00,
2013-04-10 18:29:00,36.1,34.3,29.96,ENE,58,5.0,12.0,93,0.00,,,1.11,Wunderground v.1.15,2013-04-10 23:29:00,
2013-04-10 18:34:00,36.1,34.3,29.96,East,89,1.0,14.0,93,0.00,,,1.11,Wunderground v.1.15,2013-04-10 23:34:00,
2013-04-10 18:39:00,36.0,34.2,29.96,SSW,199,2.0,10.0,93,0.00,,,1.11,Wunderground v.1.15,2013-04-10 23:39:00,
2013-04-10 18:44:00,35.8,34.0,29.96,ENE,68,7.0,15.0,93,0.00,,,1.11,Wunderground v.1.15,2013-04-10 23:44:00,
2013-04-10 18:49:00,35.7,33.9,29.97,East,79,9.0,9.0,93,0.00,,,1.11,Wunderground v.1.15,2013-04-10 23:49:00,
2013-04-10 18:54:00,35.7,33.9,29.97,NNW,328,2.0,9.0,93,0.00,,,1.11,Wunderground v.1.15,2013-04-10 23:54:00,
2013-04-10 18:59:00,35.7,33.9,29.96,NE,46,4.0,10.0,93,0.00,,,1.11,Wunderground v.1.15,2013-04-10 23:59:00,
2013-04-10 19:05:00,35.7,33.9,29.96,ESE,115,3.0,15.0,93,0.00,,,1.11,Wunderground v.1.15,2013-04-11 00:05:00,
2013-04-10 19:10:00,35.6,33.8,29.96,East,91,3.0,11.0,93,0.00,,,1.11,Wunderground v.1.15,2013-04-11 00:10:00,
2013-04-10 19:15:00,35.6,33.8,29.95,ESE,121,4.0,15.0,93,0.00,,,1.11,Wunderground v.1.15,2013-04-11 00:15:00,
2013-04-10 19:20:00,35.5,33.7,29.95,ENE,57,9.0,13.0,93,0.00,,,1.11,Wunderground v.1.15,2013-04-11 00:20:00,
2013-04-10 19:25:00,35.5,33.7,29.94,ENE,67,7.0,15.0,93,0.00,,,1.11,Wunderground v.1.15,2013-04-11 00:25:00,
2013-04-10 19:30:00,35.5,33.7,29.93,NE,36,2.0,14.0,93,0.00,,,1.11,Wunderground v.1.15,2013-04-11 00:30:00,
2013-04-10 19:35:00,35.4,33.6,29.93,East,99,5.0,14.0,93,0.00,,,1.11,Wunderground v.1.15,2013-04-11 00:35:00,
2013-04-10 19:40:00,35.3,33.7,29.93,NE,53,4.0,9.0,94,0.00,,,1.11,Wunderground v.1.15,2013-04-11 00:40:00,
2013-04-10 19:45:00,35.3,33.7,29.93,WNW,282,3.0,12.0,94,0.00,,,1.11,Wunderground v.1.15,2013-04-11 00:45:00,
2013-04-10 19:50:00,35.3,33.7,29.92,NW,313,4.0,9.0,94,0.00,,,1.11,Wunderground v.1.15,2013-04-11 00:50:00,
2013-04-10 19:55:00,35.3,33.7,29.91,ENE,59,4.0,10.0,94,0.00,,,1.11,Wunderground v.1.15,2013-04-11 00:55:00,
2013-04-10 20:00:00,35.3,33.7,29.90,NW,316,2.0,7.0,94,0.00,,,1.11,Wunderground v.1.15,2013-04-11 01:00:00,
2013-04-10 20:05:00,35.3,33.7,29.91,SW,219,5.0,11.0,94,0.00,,,1.11,Wunderground v.1.15,2013-04-11 01:05:00,
2013-04-10 20:10:00,35.3,33.7,29.93,North,356,3.0,11.0,94,0.00,,,1.11,Wunderground v.1.15,2013-04-11 01:10:00,
2013-04-10 20:15:00,35.4,33.8,29.93,WNW,297,2.0,18.0,94,0.00,,,1.12,Wunderground v.1.15,2013-04-11 01:15:00,
2013-04-10 20:20:00,35.4,33.8,29.93,East,95,9.0,10.0,94,0.00,,,1.12,Wunderground v.1.15,2013-04-11 01:20:00,
2013-04-10 20:25:00,35.4,33.8,29.92,NNW,338,3.0,15.0,94,0.00,,,1.12,Wunderground v.1.15,2013-04-11 01:25:00,
2013-04-10 20:30:00,35.4,33.8,29.93,WSW,243,4.0,11.0,94,0.00,,,1.12,Wunderground v.1.15,2013-04-11 01:30:00,
2013-04-10 20:35:00,35.5,33.9,29.95,NE,54,1.0,11.0,94,0.00,,,1.12,Wunderground v.1.15,2013-04-11 01:35:00,
2013-04-10 20:40:00,35.7,34.1,29.96,NE,41,5.0,8.0,94,0.00,,,1.12,Wunderground v.1.15,2013-04-11 01:40:00,
2013-04-10 20:45:00,35.9,34.3,29.98,NE,46,6.0,10.0,94,0.00,,,1.12,Wunderground v.1.15,2013-04-11 01:45:00,
2013-04-10 20:50:00,36.1,34.3,29.99,NNE,20,1.0,8.0,93,0.00,,,1.12,Wunderground v.1.15,2013-04-11 01:50:00,
2013-04-10 20:55:00,36.1,34.3,30.00,NW,321,4.0,8.0,93,0.00,,,1.12,Wunderground v.1.15,2013-04-11 01:55:00,
2013-04-10 21:00:00,36.3,34.5,30.00,ENE,71,10.0,12.0,93,0.00,,,1.12,Wunderground v.1.15,2013-04-11 02:00:00,
2013-04-10 21:05:00,36.4,34.6,29.99,East,97,6.0,12.0,93,0.00,,,1.12,Wunderground v.1.15,2013-04-11 02:05:00,
2013-04-10 21:10:00,36.6,34.8,29.99,ENE,78,2.0,10.0,93,0.00,,,1.12,Wunderground v.1.15,2013-04-11 02:10:00,
2013-04-10 21:15:00,36.7,34.6,29.99,SSW,194,1.0,10.0,92,0.00,,,1.12,Wunderground v.1.15,2013-04-11 02:15:00,
2013-04-10 21:20:00,36.8,34.7,29.98,East,96,5.0,6.0,92,0.00,,,1.12,Wunderground v.1.15,2013-04-11 02:20:00,
2013-04-10 21:25:00,36.9,34.8,29.99,NE,46,7.0,8.0,92,0.00,,,1.12,Wunderground v.1.15,2013-04-11 02:25:00,
2013-04-10 21:30:00,36.9,34.8,29.99,East,79,4.0,13.0,92,0.00,,,1.12,Wunderground v.1.15,2013-04-11 02:30:00,
2013-04-10 21:35:00,37.0,34.9,29.99,ENE,72,3.0,13.0,92,0.00,,,1.12,Wunderground v.1.15,2013-04-11 02:35:00,
2013-04-10 21:40:00,37.1,35.0,29.98,ENE,68,5.0,11.0,92,0.00,,,1.12,Wunderground v.1.15,2013-04-11 02:40:00,
2013-04-10 21:45:00,37.1,34.7,29.98,ENE,60,3.0,14.0,91,0.00,,,1.12,Wunderground v.1.15,2013-04-11 02:45:00,
2013-04-10 21:50:00,37.0,34.9,29.97,NNW,340,3.0,12.0,92,0.00,,,1.12,Wunderground v.1.15,2013-04-11 02:50:00,
2013-04-10 21:55:00,36.9,34.8,29.95,NNE,28,6.0,12.0,92,0.00,,,1.12,Wunderground v.1.15,2013-04-11 02:55:00,
2013-04-10 22:00:00,36.8,34.7,29.95,East,89,5.0,9.0,92,0.00,,,1.12,Wunderground v.1.15,2013-04-11 03:00:00,
2013-04-10 22:05:00,36.8,34.7,29.94,ENE,67,6.0,13.0,92,0.00,,,1.12,Wunderground v.1.15,2013-04-11 03:05:00,
2013-04-10 22:10:00,36.7,34.6,29.94,ENE,77,9.0,11.0,92,0.00,,,1.12,Wunderground v.1.15,2013-04-11 03:10:00,
2013-04-10 22:15:00,36.7,34.6,29.93,NNE,30,2.0,11.0,92,0.00,,,1.12,Wunderground v.1.15,2013-04-11 03:15:00,
2013-04-10 22:20:00,36.7,34.6,29.93,NNW,344,1.0,10.0,92,0.00,,,1.12,Wunderground v.1.15,2013-04-11 03:20:00,
2013-04-10 22:25:00,36.7,34.6,29.95,NE,40,6.0,11.0,92,0.00,,,1.12,Wunderground v.1.15,2013-04-11 03:25:00,
2013-04-10 22:30:00,36.7,34.6,29.95,East,94,5.0,16.0,92,0.00,,,1.12,Wunderground v.1.15,2013-04-11 03:30:00,
2013-04-10 22:35:00,36.7,34.6,29.96,ENE,73,15.0,16.0,92,0.00,,,1.13,Wunderground v.1.15,2013-04-11 03:35:00,
2013-04-10 22:40:00,36.7,34.6,29.96,East,99,6.0,11.0,92,0.00,,,1.13,Wunderground v.1.15,2013-04-11 03:40:00,
2013-04-10 22:45:00,36.6,34.5,29.95,East,82,12.0,17.0,92,0.09,,,1.14,Wunderground v.1.15,2013-04-11 03:45:00,
2013-04-10 22:51:00,36.6,34.5,29.94,ENE,75,9.0,14.0,92,0.12,,,1.15,Wunderground v.1.15,2013-04-11 03:51:00,
2013-04-10 22:56:00,36.5,34.7,29.94,East,79,7.0,14.0,93,0.12,,,1.16,Wunderground v.1.15,2013-04-11 03:56:00,
2013-04-10 23:00:00,36.5,34.7,29.94,NNE,26,7.0,11.0,93,0.13,,,1.17,Wunderground v.1.15,2013-04-11 04:00:00,
2013-04-10 23:01:00,36.5,34.7,29.94,ENE,60,3.0,11.0,93,0.13,,,1.17,Wunderground v.1.15,2013-04-11 04:01:00,
2013-04-10 23:06:00,36.5,34.7,29.95,NE,39,6.0,17.0,93,0.17,,,1.19,Wunderground v.1.15,2013-04-11 04:06:00,
2013-04-10 23:11:00,36.4,34.6,29.95,NE,39,3.0,9.0,93,0.18,,,1.20,Wunderground v.1.15,2013-04-11 04:11:00,
2013-04-10 23:16:00,36.4,34.6,29.95,NE,51,8.0,10.0,93,0.14,,,1.21,Wunderground v.1.15,2013-04-11 04:16:00,
2013-04-10 23:21:00,36.3,34.5,29.95,East,89,11.0,12.0,93,0.13,,,1.22,Wunderground v.1.15,2013-04-11 04:21:00,
2013-04-10 23:26:00,36.3,34.5,29.95,ESE,103,9.0,12.0,93,0.11,,,1.23,Wunderground v.1.15,2013-04-11 04:26:00,
2013-04-10 23:31:00,36.2,34.4,29.95,ENE,63,6.0,7.0,93,0.11,,,1.24,Wunderground v.1.15,2013-04-11 04:31:00,
2013-04-10 23:36:00,36.3,34.5,29.95,ENE,61,3.0,14.0,93,0.12,,,1.25,Wunderground v.1.15,2013-04-11 04:36:00,
2013-04-10 23:41:00,36.2,34.4,29.94,SSE,149,1.0,17.0,93,0.10,,,1.26,Wunderground v.1.15,2013-04-11 04:41:00,
2013-04-10 23:46:00,36.1,34.3,29.94,NNE,29,5.0,17.0,93,0.09,,,1.27,Wunderground v.1.15,2013-04-11 04:46:00,
2013-04-10 23:52:00,36.1,34.3,29.94,ENE,77,3.0,12.0,93,0.10,,,1.28,Wunderground v.1.15,2013-04-11 04:52:00,
2013-04-10 23:57:00,36.1,34.3,29.93,ESE,111,6.0,13.0,93,0.12,,,1.29,Wunderground v.1.15,2013-04-11 04:57:00,